Latest Weather Observations for Tindal

IDD60801

Issued at 11:31 am CST Saturday 21 January 2017 (issued every 30 minutes, with the page automatically refreshed every 10 minutes)

About weather observations | Map of weather stations | Latest weather observations for NT | Other Formats
Station Details ID: 014932 Name: TINDAL RAAF Lat: -14.52 Lon: 132.38 Height: 133.6 m
Data from the previous 72 hours. | See also: Recent months at Tindal
Date/Time
CST
Temp
°C
App
Temp
°C
Dew
Point
°C
Rel
Hum
%
Delta-T
°C
Wind Press
QNH
hPa
Press
MSL
hPa
Rain since
9am
mm
Dir  Spd
km/h
Gust
km/h
Spd
kts
Gust
kts
21/11:00am 29.9 32.4 24.5 73 3.8 WNW 19 24 10 13 1010.5 1009.5 0.0
21/10:30am 28.5 31.9 24.1 77 3.1 NNW 13 19 7 10 1010.8 1009.8 0.0
21/10:00am 28.2 31.1 24.4 80 2.7 NW 17 24 9 13 1011.1 1010.1 0.0
21/09:30am 27.4 29.9 23.8 81 2.5 NW 17 26 9 14 1011.4 1010.4 0.0
21/09:20am 27.3 29.9 24.0 82 2.3 WNW 17 22 9 12 1011.4 1010.4 0.0
21/09:00am 27.2 29.9 24.1 83 2.2 WNW 17 24 9 13 1011.3 1010.3 5.2
21/08:30am 26.9 30.2 24.5 87 1.7 WNW 15 20 8 11 1011.0 1010.0 5.2
21/08:00am 26.0 29.8 24.0 89 1.4 NW 11 19 6 10 1010.6 1009.6 5.2
21/07:55am 26.0 30.1 24.0 89 1.4 NW 9 13 5 7 1010.6 1009.6 5.2
21/07:30am 25.5 29.6 23.9 91 1.1 NW 9 11 5 6 1010.4 1009.4 5.2
21/07:00am 25.0 29.4 23.8 93 0.8 NW 7 9 4 5 1009.8 1008.8 5.2
21/06:30am 24.9 29.3 23.5 92 1.0 NNW 6 7 3 4 1009.5 1008.5 5.2
21/06:00am 24.9 30.5 23.5 92 1.0 CALM 0 0 0 0 1009.2 1008.2 5.2
21/05:30am 24.8 29.3 23.6 93 0.8 NW 6 9 3 5 1008.9 1007.9 5.2
21/05:00am 24.9 28.7 23.5 92 1.0 NW 9 11 5 6 1008.9 1007.9 5.2
21/04:30am 24.9 29.1 23.5 92 1.0 NNW 7 9 4 5 1008.8 1007.8 5.2
21/04:00am 25.0 30.2 23.6 92 1.0 NNW 2 7 1 4 1008.9 1007.9 5.2
21/03:30am 25.0 29.5 23.6 92 1.0 NNW 6 7 3 4 1009.0 1008.0 5.2
21/03:00am 25.0 29.5 23.6 92 1.0 NW 6 7 3 4 1009.0 1008.0 5.2
21/02:30am 24.9 29.4 23.7 93 0.8 WNW 6 7 3 4 1009.0 1008.0 5.2
21/02:00am 24.9 29.1 23.5 92 1.0 WNW 7 7 4 4 1009.2 1008.2 5.2
21/01:30am 24.9 29.3 23.5 92 1.0 NW 6 9 3 5 1009.3 1008.3 5.2
21/01:00am 24.9 29.1 23.5 92 1.0 NNW 7 11 4 6 1009.5 1008.5 5.2
21/12:30am 24.8 29.0 23.4 92 1.0 NW 7 9 4 5 1009.7 1008.7 5.2
21/12:00am 24.9 29.3 23.5 92 1.0 NNW 6 9 3 5 1010.0 1009.0 5.2
 
Date/Time
CST
Temp
°C
App
Temp
°C
Dew
Point
°C
Rel
Hum
%
Delta-T
°C
Wind Press
QNH
hPa
Press
MSL
hPa
Rain since
9am
mm
Dir  Spd
km/h
Gust
km/h
Spd
kts
Gust
kts
20/11:30pm 24.9 28.7 23.5 92 1.0 NNW 9 11 5 6 1010.3 1009.3 5.2
20/11:00pm 24.9 28.5 23.1 90 1.2 NNW 9 11 5 6 1010.6 1009.6 5.2
20/10:30pm 24.9 28.6 23.3 91 1.1 NNW 9 11 5 6 1010.4 1009.4 5.2
20/10:02pm 25.0 29.5 23.6 92 1.0 NNW 6 7 3 4 1010.3 1009.3 5.2
20/10:00pm 25.0 29.4 23.4 91 1.1 NNW 6 7 3 4 1010.3 1009.3 5.2
20/09:30pm 24.8 28.9 23.2 91 1.1 NNW 7 9 4 5 1010.0 1009.0 5.2
20/09:20pm 24.9 28.5 23.1 90 1.2 NNW 9 11 5 6 1009.9 1008.9 5.2
20/09:00pm 24.8 28.9 23.0 90 1.2 N 6 7 3 4 1009.6 1008.6 5.2
20/08:30pm 24.7 27.4 22.9 90 1.2 NNW 13 17 7 9 1009.2 1008.2 5.2
20/08:00pm 24.8 27.7 23.2 91 1.1 NNW 13 17 7 9 1009.0 1008.0 5.2
20/07:30pm 24.7 28.1 23.3 92 1.0 NNW 11 15 6 8 1008.5 1007.5 4.8
20/07:00pm 24.7 27.3 23.3 92 1.0 NW 15 22 8 12 1008.1 1007.1 4.2
20/06:30pm 24.9 27.6 23.5 92 1.0 NNW 15 20 8 11 1007.6 1006.7 3.4
20/06:00pm 24.8 26.8 23.6 93 0.8 NNW 19 26 10 14 1007.3 1006.3 2.4
20/05:30pm 24.6 25.3 23.0 91 1.1 NW 24 32 13 17 1007.3 1006.3 1.6
20/05:24pm 24.6 24.9 23.0 91 1.1 NW 26 32 14 17 1007.2 1006.2 1.6
20/05:20pm 24.6 24.9 23.0 91 1.1 NW 26 35 14 19 1007.1 1006.1 1.6
20/05:05pm 24.8 25.0 23.4 92 1.0 NW 28 39 15 21 1006.8 1005.8 1.2
20/05:00pm 24.9 24.8 23.5 92 1.0 NW 30 41 16 22 1006.7 1005.7 1.2
20/04:38pm 25.4 24.3 23.5 89 1.3 NW 35 54 19 29 1006.3 1005.3 0.0
20/04:36pm 25.9 24.8 24.1 90 1.2 NW 37 56 20 30 1006.3 1005.3 0.0
20/04:30pm 26.6 24.3 23.3 82 2.3 NW 41 57 22 31 1006.2 1005.2 0.0
20/04:24pm 28.1 26.8 23.2 74 3.4 NW 35 57 19 31 1005.9 1004.9 0.0
20/04:19pm 29.6 30.1 22.6 66 4.8 NW 24 50 13 27 1005.6 1004.6 0.0
20/04:00pm 31.2 32.2 22.2 58 6.1 NW 20 26 11 14 1005.4 1004.4 0.0
20/03:30pm 31.3 34.1 23.7 64 5.3 NNW 15 24 8 13 1005.6 1004.6 0.0
20/03:00pm 31.9 33.9 22.9 59 6.2 NW 17 22 9 12 1006.1 1005.1 0.0
20/02:30pm 31.8 33.9 23.1 60 6.0 NW 17 24 9 13 1006.6 1005.6 0.0
20/02:00pm 30.0 32.2 23.2 67 4.7 NNW 17 22 9 12 1007.0 1006.0 0.0
20/01:30pm 31.6 33.8 23.2 61 5.8 WNW 17 32 9 17 1007.2 1006.2 0.0
20/01:00pm 30.0 30.7 22.9 65 4.9 WNW 24 32 13 17 1007.6 1006.7 0.0
20/12:30pm 31.4 32.9 22.7 60 6.0 WNW 19 26 10 14 1007.9 1007.0 0.0
20/12:00pm 30.8 32.8 22.9 62 5.4 NW 17 22 9 12 1008.6 1007.6 0.0
20/11:30am 30.1 32.0 22.8 65 5.0 WNW 17 24 9 13 1009.3 1008.3 0.0
20/11:00am 29.4 31.4 22.9 68 4.5 NW 17 24 9 13 1009.6 1008.6 0.0
20/10:30am 29.3 31.7 23.7 72 3.9 NW 17 28 9 15 1009.9 1008.9 0.0
20/10:00am 28.4 29.8 22.9 72 3.8 NW 20 26 11 14 1009.9 1008.9 0.0
20/09:39am 27.9 29.7 22.6 73 3.6 NW 17 24 9 13 1009.9 1008.9 0.0
20/09:30am 27.8 29.7 22.7 74 3.5 WNW 17 22 9 12 1009.9 1008.9 0.0
20/09:00am 26.7 29.6 23.2 81 2.4 WNW 13 20 7 11 1009.7 1008.7 0.2
20/08:30am 26.3 28.3 23.0 82 2.3 NW 17 24 9 13 1009.5 1008.5 0.2
20/08:05am 26.1 28.1 23.0 83 2.1 WNW 17 22 9 12 1009.3 1008.3 0.2
20/08:00am 26.0 28.5 23.1 84 2.0 WNW 15 20 8 11 1009.3 1008.3 0.2
20/07:30am 25.0 27.9 23.2 90 1.2 WNW 13 20 7 11 1009.1 1008.1 0.2
20/07:00am 24.3 28.3 23.1 93 0.8 NW 7 9 4 5 1008.8 1007.8 0.2
20/06:30am 24.0 29.2 22.8 93 0.8 CALM 0 0 0 0 1008.4 1007.4 0.2
20/06:00am 24.0 27.9 22.6 92 0.9 WNW 6 7 3 4 1008.1 1007.1 0.2
20/05:30am 24.1 27.8 22.5 91 1.1 WNW 7 9 4 5 1007.8 1006.9 0.2
20/05:00am 24.4 29.5 22.7 90 1.1 CALM 0 0 0 0 1007.9 1007.0 0.2
20/04:30am 24.5 28.4 22.6 89 1.3 NW 6 7 3 4 1008.1 1007.1 0.2
20/04:00am 24.8 28.7 22.5 87 1.6 N 6 7 3 4 1008.2 1007.2 0.2
20/03:30am 24.8 28.7 22.5 87 1.6 NNW 6 9 3 5 1008.4 1007.4 0.2
20/03:00am 25.0 28.6 22.3 85 1.8 N 7 11 4 6 1008.5 1007.5 0.2
20/02:30am 25.1 28.4 22.6 86 1.7 NNE 9 11 5 6 1008.9 1007.9 0.2
20/02:00am 25.0 28.2 22.3 85 1.8 NNE 9 13 5 7 1008.8 1007.8 0.2
20/01:30am 24.9 28.4 22.8 88 1.4 NNE 9 13 5 7 1008.9 1007.9 0.2
20/01:00am 25.0 28.9 22.9 88 1.4 N 7 9 4 5 1009.0 1008.0 0.2
20/12:30am 25.0 28.4 22.7 87 1.6 N 9 13 5 7 1009.2 1008.2 0.2
20/12:00am 24.8 28.7 22.5 87 1.6 N 6 7 3 4 1009.6 1008.6 0.2
 
Date/Time
CST
Temp
°C
App
Temp
°C
Dew
Point
°C
Rel
Hum
%
Delta-T
°C
Wind Press
QNH
hPa
Press
MSL
hPa
Rain since
9am
mm
Dir  Spd
km/h
Gust
km/h
Spd
kts
Gust
kts
19/11:30pm 24.8 27.8 22.7 88 1.4 NW 11 15 6 8 1009.8 1008.8 0.2
19/11:00pm 25.0 27.6 22.7 87 1.6 NW 13 17 7 9 1009.7 1008.7 0.2
19/10:30pm 25.5 28.0 23.2 87 1.6 NW 15 20 8 11 1009.6 1008.6 0.2
19/10:00pm 25.7 29.7 23.7 89 1.4 NNW 9 11 5 6 1009.5 1008.5 0.2
19/09:30pm 25.5 29.4 23.6 89 1.3 NNW 9 11 5 6 1009.1 1008.1 0.2
19/09:00pm 25.6 30.1 23.7 89 1.3 NW 6 9 3 5 1008.9 1007.9 0.2
19/08:30pm 25.7 30.0 23.7 89 1.4 NNW 7 11 4 6 1008.9 1007.9 0.2
19/08:00pm 25.7 29.7 23.7 89 1.4 NNW 9 11 5 6 1008.8 1007.8 0.2
19/07:30pm 25.8 29.4 23.8 89 1.4 NW 11 15 6 8 1008.6 1007.6 0.2
19/07:00pm 26.2 29.5 23.9 87 1.6 NW 13 17 7 9 1007.9 1007.0 0.2
19/06:30pm 26.6 30.3 23.3 82 2.3 N 9 13 5 7 1007.6 1006.7 0.2
19/06:00pm 26.5 30.7 23.2 82 2.3 NW 6 9 3 5 1007.1 1006.1 0.2
19/05:30pm 25.9 28.9 23.4 86 1.7 WSW 13 19 7 10 1007.0 1006.0 0.2
19/05:00pm 26.8 29.1 23.5 82 2.3 WSW 17 24 9 13 1007.3 1006.3 0.2
19/04:30pm 26.7 27.0 23.6 83 2.1 W 28 39 15 21 1007.1 1006.1 0.2
19/04:26pm 26.8 26.4 23.7 83 2.1 W 32 50 17 27 1007.0 1006.0 0.2
19/04:08pm 30.7 33.0 22.8 62 5.4 WNW 15 48 8 26 1006.7 1005.7 0.2
19/04:00pm 32.4 36.8 22.8 57 6.6 WNW 4 11 2 6 1006.4 1005.4 0.2
19/03:30pm 33.4 37.0 23.1 54 7.2 WNW 9 20 5 11 1006.6 1005.6 0.2
19/03:00pm 32.2 37.1 22.3 56 6.8 CALM 0 7 0 4 1007.4 1006.5 0.2
19/02:30pm 32.1 35.5 23.3 59 6.1 WNW 11 17 6 9 1007.9 1007.0 0.2
19/02:00pm 31.8 34.4 21.9 55 6.7 WSW 11 13 6 7 1008.4 1007.4 0.2
19/01:30pm 31.5 34.5 21.9 56 6.5 WNW 9 17 5 9 1009.1 1008.1 0.2
19/01:00pm 31.1 33.9 23.0 62 5.6 NW 13 17 7 9 1009.6 1008.6 0.2
19/12:30pm 31.0 33.6 22.6 61 5.8 WSW 13 19 7 10 1010.1 1009.1 0.2
19/12:00pm 31.3 34.2 23.1 61 5.7 W 13 19 7 10 1010.6 1009.6 0.2
19/11:30am 30.3 33.5 23.0 65 5.0 W 11 17 6 9 1011.0 1010.0 0.2
19/11:00am 29.5 32.3 23.0 68 4.5 NW 13 19 7 10 1011.2 1010.2 0.2
19/10:30am 28.5 31.8 23.2 73 3.6 WNW 11 15 6 8 1011.5 1010.5 0.0
19/10:00am 27.9 31.6 23.3 76 3.2 WNW 9 15 5 8 1011.7 1010.7 0.0
19/09:30am 27.4 31.3 23.6 80 2.6 NW 9 13 5 7 1011.8 1010.8 0.0
19/09:17am 27.0 31.1 23.3 80 2.5 NW 7 11 4 6 1011.8 1010.8 0.0
19/09:00am 26.5 30.3 23.4 83 2.1 WNW 9 13 5 7 1011.7 1010.7 15.4
19/08:30am 26.0 31.2 23.5 86 1.7 WNW 2 9 1 5 1011.4 1010.4 15.4
19/08:00am 25.4 31.0 23.5 89 1.3 CALM 0 0 0 0 1011.2 1010.2 15.4
19/07:30am 25.0 30.1 23.4 91 1.1 WSW 2 6 1 3 1011.1 1010.1 15.4
19/07:00am 24.6 28.3 23.2 92 1.0 WNW 9 13 5 7 1010.7 1009.7 15.4
19/06:52am 24.6 27.9 23.2 92 1.0 WNW 11 15 6 8 1010.7 1009.7 15.4
19/06:50am 24.6 27.9 23.2 92 1.0 WNW 11 15 6 8 1010.6 1009.6 15.4
19/06:30am 24.6 27.1 23.2 92 1.0 WNW 15 19 8 10 1010.3 1009.3 15.4
19/06:00am 24.8 28.8 23.8 94 0.7 WNW 9 15 5 8 1009.9 1008.9 15.4
19/05:30am 24.7 30.0 23.7 94 0.7 NNW 2 7 1 4 1009.5 1008.5 15.4
19/05:00am 24.6 29.1 23.6 94 0.7 N 6 7 3 4 1009.1 1008.1 15.4
19/04:30am 24.6 29.9 23.7 95 0.6 NNW 2 9 1 5 1009.0 1008.0 15.4
19/04:00am 24.6 28.6 23.7 95 0.6 NW 9 11 5 6 1009.1 1008.1 15.4
19/03:30am 24.6 28.5 23.6 94 0.7 NW 9 11 5 6 1009.5 1008.5 15.4
19/03:00am 24.7 28.7 23.7 94 0.7 NW 9 13 5 7 1010.0 1009.0 15.4
19/02:30am 24.9 29.6 23.9 94 0.7 NW 6 9 3 5 1010.3 1009.3 15.4
19/02:00am 24.9 28.9 23.7 93 0.8 WNW 9 11 5 6 1010.6 1009.6 15.4
19/01:39am 24.9 29.2 23.7 93 0.8 NW 7 9 4 5 1010.9 1009.9 15.4
19/01:30am 24.9 29.4 23.7 93 0.8 NNW 6 9 3 5 1011.0 1010.0 15.4
19/01:00am 24.8 29.4 23.8 94 0.7 NNW 6 9 3 5 1011.2 1010.2 15.4
19/12:30am 24.8 29.4 23.8 94 0.7 NW 6 7 3 4 1011.6 1010.6 15.4
19/12:00am 24.6 30.2 23.6 94 0.7 CALM 0 4 0 2 1012.1 1011.1 15.4
 
Date/Time
CST
Temp
°C
App
Temp
°C
Dew
Point
°C
Rel
Hum
%
Delta-T
°C
Wind Press
QNH
hPa
Press
MSL
hPa
Rain since
9am
mm
Dir  Spd
km/h
Gust
km/h
Spd
kts
Gust
kts
18/11:30pm 24.6 29.0 23.4 93 0.8 NW 6 9 3 5 1012.5 1011.5 15.2
18/11:00pm 24.6 29.0 23.4 93 0.8 NW 6 11 3 6 1012.5 1011.5 15.0
18/10:30pm 24.6 28.4 23.4 93 0.8 NE 9 13 5 7 1012.3 1011.3 14.6
18/10:00pm 24.7 29.3 23.1 91 1.1 NNE 4 9 2 5 1012.3 1011.3 13.6
18/09:30pm 24.5 29.8 23.1 92 1.0 CALM 0 0 0 0 1012.1 1011.1 12.6
18/09:00pm 24.5 29.8 23.1 92 1.0 CALM 0 0 0 0 1012.3 1011.3 12.2
18/08:30pm 24.4 28.1 23.2 93 0.8 ENE 9 13 5 7 1012.6 1011.6 11.2
18/08:15pm 24.3 27.5 23.1 93 0.8 NE 11 11 6 6 1012.2 1011.2 10.6
18/08:00pm 24.3 28.2 22.9 92 0.9 N 7 9 4 5 1011.6 1010.6 9.8
18/07:30pm 24.4 27.5 22.8 91 1.1 N 11 15 6 8 1011.1 1010.1 5.8
18/07:11pm 24.7 28.2 22.9 90 1.2 NNW 9 17 5 9 1010.9 1009.9 3.4
18/07:00pm 24.8 27.2 22.9 89 1.3 NNW 15 24 8 13 1010.5 1009.5 2.6
18/06:30pm 25.3 27.2 22.8 86 1.7 N 17 24 9 13 1010.3 1009.3 1.4
18/06:22pm 25.7 29.2 23.6 88 1.4 NNW 11 19 6 10 1010.4 1009.4 1.2
18/06:00pm 25.5 29.7 24.1 92 1.0 NNW 9 17 5 9 1010.1 1009.1 1.0
18/05:48pm 25.3 29.0 23.9 92 1.0 NNW 11 15 6 8 1009.7 1008.7 1.0
18/05:43pm 25.1 29.1 23.7 92 1.0 NW 9 15 5 8 1009.7 1008.7 1.0
18/05:30pm 25.1 28.0 23.2 89 1.3 WNW 13 20 7 11 1009.3 1008.3 0.6
18/05:00pm 26.7 28.1 23.6 83 2.1 W 22 32 12 17 1008.4 1007.4 0.0
18/04:30pm 30.5 31.4 23.4 66 4.9 WNW 24 59 13 32 1007.3 1006.3 0.0
18/04:29pm 31.6 33.1 23.7 63 5.5 WNW 22 59 12 32 1007.2 1006.2 0.0
18/04:00pm 34.4 36.9 21.8 48 8.6 NNW 11 17 6 9 1006.5 1005.5 0.0
18/03:30pm 33.5 36.5 22.6 53 7.5 NNW 11 17 6 9 1006.7 1005.7 0.0
18/03:00pm 33.0 36.3 23.9 59 6.4 N 13 22 7 12 1007.2 1006.2 0.0
18/02:30pm 33.6 37.7 23.3 55 7.2 N 7 13 4 7 1007.4 1006.5 0.0
18/02:00pm 32.7 36.6 23.6 58 6.3 NE 9 13 5 7 1008.1 1007.1 0.0
18/01:30pm 32.6 35.2 22.7 56 6.8 NNW 13 20 7 11 1008.6 1007.6 0.0
18/01:00pm 32.3 35.6 23.8 61 5.9 NNE 13 20 7 11 1009.1 1008.1 0.0
18/12:30pm 31.6 33.7 21.7 55 6.7 NNW 13 20 7 11 1009.6 1008.6 0.0
18/12:00pm 31.8 34.3 23.1 60 6.0 NNW 15 22 8 12 1010.2 1009.2 0.0

Other Formats:

Comma delimited format used in spreadsheet applications
http://www.bom.gov.au/fwo/IDD60801/IDD60801.94131.axf

JavaScript Object Notation format (JSON) in row-major order
http://www.bom.gov.au/fwo/IDD60801/IDD60801.94131.json